Alkabo, North Dakota
Current Conditions -  °F | °C
As of 3:52 PM on Monday 24 Nov 2014 (Local Time) from KISN Reporting Station
Broken Clouds Broken Clouds  
Wind Chill: 17°   Ceiling: 6000
Heat Index: 26°   Visibility: 10mi
Dew Point: 18°   Wind: 9mph
Humidity: 71%   Direction: 220°SW
Pressure: 29.97"   Gusts: NA
Location:  48.5901°N, 103.922°W
Report Text: KISN 242152Z AUTO 22008KT 10SM BKN060 BKN075 BKN110 M03/M08 A2997 RMK AO2 SLP188 T10331078
Loading
Personal Weather Stations






























Interactive Weather Map New forecast layout! Learn more

10-Day Weather Forecast

Advertisements
Track Severe Weather on mobile